createdAt,value
2018-01-07T00:00:23.245Z,77.30
2018-01-07T00:02:50.755Z,78.00
2018-01-07T00:05:18.280Z,78.00
2018-01-07T00:07:45.766Z,78.00
2018-01-07T00:10:14.042Z,77.70
2018-01-07T00:12:42.302Z,77.80
2018-01-07T00:15:09.798Z,77.70
2018-01-07T00:17:37.293Z,77.70
2018-01-07T00:20:04.796Z,77.70
2018-01-07T00:22:33.047Z,78.70
2018-01-07T00:25:00.547Z,78.50
2018-01-07T00:27:28.052Z,78.60
2018-01-07T00:29:55.540Z,79.00
2018-01-07T00:32:23.802Z,79.60
2018-01-07T00:34:51.306Z,79.60
2018-01-07T00:37:18.802Z,79.70
2018-01-07T00:39:46.257Z,79.50
2018-01-07T00:42:13.756Z,79.70
2018-01-07T00:44:42.021Z,80.40
2018-01-07T00:47:10.229Z,80.60
2018-01-07T00:49:37.738Z,80.60
2018-01-07T00:52:05.188Z,80.40
2018-01-07T00:54:32.648Z,80.50
2018-01-07T00:57:00.103Z,80.80
2018-01-07T00:59:27.597Z,80.20
2018-01-07T01:01:55.818Z,80.40
2018-01-07T01:04:23.280Z,80.40
2018-01-07T01:06:50.727Z,80.50
2018-01-07T01:09:18.179Z,80.40
2018-01-07T01:11:46.404Z,81.00
2018-01-07T01:16:48.455Z,81.10
2018-01-07T01:19:15.899Z,81.50
2018-01-07T01:21:43.355Z,81.30
2018-01-07T01:24:10.808Z,81.40
2018-01-07T01:26:38.288Z,80.90
2018-01-07T01:29:05.802Z,80.40
2018-01-07T01:31:33.264Z,80.90
2018-01-07T01:34:00.716Z,80.70
2018-01-07T01:36:28.179Z,80.00
2018-01-07T01:38:55.649Z,79.90
2018-01-07T01:41:23.100Z,79.80
2018-01-07T01:46:24.412Z,79.80
2018-01-07T01:48:51.860Z,80.60
2018-01-07T01:51:19.316Z,80.70
2018-01-07T01:53:46.768Z,80.30
2018-01-07T01:56:14.226Z,80.70
2018-01-07T01:58:41.680Z,80.50
2018-01-07T02:01:09.139Z,80.60
2018-01-07T02:03:36.598Z,80.50
2018-01-07T02:06:04.060Z,80.30
2018-01-07T02:08:31.507Z,80.00
2018-01-07T02:10:58.964Z,80.30
2018-01-07T02:13:26.424Z,80.40
2018-01-07T02:15:53.883Z,80.40
2018-01-07T02:18:21.336Z,80.50
2018-01-07T02:20:48.800Z,80.50
2018-01-07T02:23:16.252Z,81.10
2018-01-07T02:25:43.707Z,80.70
2018-01-07T02:28:11.176Z,80.90
2018-01-07T02:30:38.640Z,80.90
2018-01-07T02:33:06.108Z,81.10
2018-01-07T02:35:34.324Z,81.20
2018-01-07T02:38:01.788Z,81.20
2018-01-07T02:40:29.231Z,81.00
2018-01-07T02:42:56.699Z,80.80
2018-01-07T02:45:24.151Z,81.10
2018-01-07T02:47:51.608Z,80.60
2018-01-07T02:50:19.060Z,80.40
2018-01-07T02:52:46.527Z,79.40
2018-01-07T02:55:14.011Z,78.70
2018-01-07T02:57:41.480Z,77.40
2018-01-07T03:00:08.926Z,77.00
2018-01-07T03:02:36.392Z,76.60
2018-01-07T03:05:03.844Z,75.80
2018-01-07T03:07:31.338Z,76.10
2018-01-07T03:09:59.556Z,76.20
2018-01-07T03:12:27.015Z,76.20
2018-01-07T03:14:54.465Z,76.50
2018-01-07T03:17:21.983Z,77.30
2018-01-07T03:19:50.207Z,77.30
2018-01-07T03:22:17.660Z,77.30
2018-01-07T03:24:45.108Z,77.40
2018-01-07T03:27:12.568Z,77.10
2018-01-07T03:29:40.015Z,77.90
2018-01-07T03:32:07.492Z,77.90
2018-01-07T03:34:34.942Z,77.40
2018-01-07T03:37:02.395Z,77.10
2018-01-07T03:39:29.851Z,77.50
2018-01-07T03:41:57.305Z,76.80
2018-01-07T03:44:24.764Z,76.50
2018-01-07T03:46:52.209Z,76.60
2018-01-07T03:49:19.675Z,77.70
2018-01-07T03:51:47.123Z,78.10
2018-01-07T03:54:14.592Z,78.00
2018-01-07T03:56:42.048Z,78.00
2018-01-07T03:59:09.511Z,77.20
2018-01-07T04:01:36.960Z,77.20
2018-01-07T04:04:05.251Z,76.70
2018-01-07T04:06:32.700Z,75.60
2018-01-07T04:09:00.163Z,75.90
2018-01-07T04:11:27.612Z,76.80
2018-01-07T04:13:55.081Z,77.20
2018-01-07T04:16:22.537Z,77.80
2018-01-07T04:18:49.995Z,78.00
2018-01-07T04:21:17.448Z,77.90
2018-01-07T04:23:44.908Z,77.80
2018-01-07T04:26:12.359Z,77.80
2018-01-07T04:28:39.827Z,78.00
2018-01-07T04:31:07.282Z,78.40
2018-01-07T04:33:34.748Z,78.60
2018-01-07T04:36:02.245Z,78.80
2018-01-07T04:38:29.665Z,78.40
2018-01-07T04:40:57.108Z,78.30
2018-01-07T04:43:24.580Z,78.80
2018-01-07T04:45:52.036Z,78.00
2018-01-07T04:48:20.248Z,78.20
2018-01-07T04:50:48.486Z,79.50
2018-01-07T04:53:15.944Z,78.80
2018-01-07T04:55:43.403Z,79.60
2018-01-07T04:58:10.861Z,78.70
2018-01-07T05:00:38.314Z,79.00
2018-01-07T05:03:05.772Z,79.20
2018-01-07T05:05:33.233Z,79.40
2018-01-07T05:08:00.702Z,79.20
2018-01-07T05:10:28.156Z,79.40
2018-01-07T05:12:55.607Z,79.70
2018-01-07T05:15:23.067Z,79.30
2018-01-07T05:17:50.520Z,78.90
2018-01-07T05:20:18.010Z,79.30
2018-01-07T05:22:45.464Z,79.20
2018-01-07T05:25:12.932Z,79.40
2018-01-07T05:27:41.147Z,78.20
2018-01-07T05:30:08.608Z,78.20
2018-01-07T05:32:36.052Z,78.20
2018-01-07T05:35:03.508Z,78.50
2018-01-07T05:37:30.975Z,78.40
2018-01-07T05:39:58.435Z,78.40
2018-01-07T05:42:25.876Z,78.50
2018-01-07T05:44:53.344Z,78.30
2018-01-07T05:47:20.795Z,77.60
2018-01-07T05:49:48.260Z,77.70
2018-01-07T05:52:15.704Z,77.50
2018-01-07T05:54:43.167Z,78.00
2018-01-07T05:57:10.616Z,78.00
2018-01-07T05:59:38.072Z,78.30
2018-01-07T06:02:05.546Z,77.80
2018-01-07T06:04:33.003Z,78.30
2018-01-07T06:07:00.479Z,78.20
2018-01-07T06:09:27.939Z,78.00
2018-01-07T06:11:55.398Z,78.30
2018-01-07T06:14:22.856Z,78.20
2018-01-07T06:16:50.319Z,78.70
2018-01-07T06:19:17.826Z,78.00
2018-01-07T06:21:45.256Z,78.40
2018-01-07T06:24:12.709Z,78.50
2018-01-07T06:26:40.164Z,78.30
2018-01-07T06:29:07.630Z,78.60
2018-01-07T06:31:35.084Z,78.20
2018-01-07T06:34:02.541Z,78.30
2018-01-07T06:36:30.017Z,78.60
2018-01-07T06:38:58.227Z,79.20
2018-01-07T06:41:25.688Z,79.20
2018-01-07T06:43:53.144Z,79.20
2018-01-07T06:46:20.615Z,79.50
2018-01-07T06:48:48.076Z,78.60
2018-01-07T06:51:15.540Z,78.80
2018-01-07T06:53:43.008Z,78.80
2018-01-07T06:56:10.472Z,79.30
2018-01-07T06:58:37.928Z,79.50
2018-01-07T07:01:05.388Z,78.50
2018-01-07T07:03:32.843Z,79.40
2018-01-07T07:06:00.303Z,79.20
2018-01-07T07:08:27.760Z,79.30
2018-01-07T07:10:55.222Z,79.40
2018-01-07T07:13:22.677Z,79.00
2018-01-07T07:15:50.158Z,79.40
2018-01-07T07:18:18.379Z,79.50
2018-01-07T07:20:46.609Z,78.90
2018-01-07T07:23:14.840Z,79.70
2018-01-07T07:25:42.292Z,79.00
2018-01-07T07:28:09.752Z,79.30
2018-01-07T07:30:37.203Z,78.80
2018-01-07T07:33:04.675Z,78.90
2018-01-07T07:35:32.892Z,79.50
2018-01-07T07:38:00.356Z,79.50
2018-01-07T07:40:27.852Z,78.50
2018-01-07T07:42:55.324Z,79.10
2018-01-07T07:45:22.779Z,78.80
2018-01-07T07:47:50.248Z,78.90
2018-01-07T07:50:17.704Z,78.30
2018-01-07T07:52:45.172Z,78.50
2018-01-07T07:55:12.625Z,78.60
2018-01-07T07:57:40.085Z,79.00
2018-01-07T08:00:07.587Z,78.80
2018-01-07T08:02:35.019Z,78.10
2018-01-07T08:05:03.237Z,79.20
2018-01-07T08:07:30.704Z,79.20
2018-01-07T08:09:58.172Z,78.80
2018-01-07T08:12:26.023Z,78.70
2018-01-07T08:14:53.680Z,78.80
2018-01-07T08:17:21.156Z,78.30
2018-01-07T08:19:48.656Z,77.70
2018-01-07T08:22:16.127Z,77.30
2018-01-07T08:24:43.583Z,77.80
2018-01-07T08:27:11.026Z,77.50
2018-01-07T08:29:39.259Z,76.40
2018-01-07T08:32:06.723Z,76.30
2018-01-07T08:34:34.520Z,76.90
2018-01-07T08:37:02.079Z,76.10
2018-01-07T08:39:30.322Z,76.70
2018-01-07T08:41:57.951Z,76.60
2018-01-07T08:44:25.423Z,77.50
2018-01-07T08:46:52.890Z,77.10
2018-01-07T08:49:20.356Z,76.50
2018-01-07T08:51:47.815Z,76.40
2018-01-07T08:54:15.281Z,76.30
2018-01-07T08:56:42.857Z,76.60
2018-01-07T08:59:10.320Z,76.00
2018-01-07T09:01:38.544Z,76.40
2018-01-07T09:04:06.013Z,76.40
2018-01-07T09:06:33.490Z,76.10
2018-01-07T09:09:01.391Z,75.70
2018-01-07T09:11:29.613Z,76.50
2018-01-07T09:13:57.080Z,76.50
2018-01-07T09:16:24.551Z,75.90
2018-01-07T09:18:52.024Z,75.60
2018-01-07T09:21:20.248Z,75.30
2018-01-07T09:23:47.715Z,75.30
2018-01-07T09:26:15.184Z,76.20
2018-01-07T09:28:42.649Z,75.60
2018-01-07T09:31:10.160Z,76.00
2018-01-07T09:33:37.640Z,76.00
2018-01-07T09:36:05.100Z,76.10
2018-01-07T09:38:32.590Z,76.40
2018-01-07T09:41:00.057Z,76.10
2018-01-07T09:43:28.333Z,76.50
2018-01-07T09:45:56.576Z,76.80
2018-01-07T09:48:24.046Z,76.80
2018-01-07T09:50:51.535Z,75.90
2018-01-07T09:53:19.747Z,75.80
2018-01-07T09:55:47.229Z,75.90
2018-01-07T09:58:14.696Z,76.00
2018-01-07T10:00:42.181Z,76.20
2018-01-07T10:03:09.644Z,76.40
2018-01-07T10:05:37.908Z,76.00
2018-01-07T10:08:06.144Z,76.70
2018-01-07T10:10:33.645Z,76.00
2018-01-07T10:13:01.111Z,75.80
2018-01-07T10:15:29.345Z,76.50
2018-01-07T10:17:56.805Z,76.60
2018-01-07T10:20:24.271Z,75.20
2018-01-07T10:22:51.748Z,76.20
2018-01-07T10:25:19.215Z,75.90
2018-01-07T10:27:47.441Z,76.50
2018-01-07T10:30:14.910Z,76.50
2018-01-07T10:32:42.391Z,75.60
2018-01-07T10:35:09.868Z,75.90
2018-01-07T10:37:37.609Z,75.80
2018-01-07T10:40:05.108Z,75.40
2018-01-07T10:42:32.635Z,76.00
2018-01-07T10:45:00.168Z,76.50
2018-01-07T10:47:27.680Z,75.80
2018-01-07T10:49:55.196Z,75.80
2018-01-07T10:52:22.674Z,75.10
2018-01-07T10:54:50.131Z,75.90
2018-01-07T10:57:17.606Z,75.80
2018-01-07T10:59:45.195Z,75.40
2018-01-07T11:02:19.040Z,75.60
2018-01-07T11:04:46.536Z,75.50
2018-01-07T11:07:14.011Z,75.70
2018-01-07T11:09:42.281Z,74.10
2018-01-07T11:12:13.100Z,74.00
2018-01-07T11:14:40.687Z,73.90
2018-01-07T11:17:09.090Z,74.50
2018-01-07T11:19:36.583Z,74.50
2018-01-07T11:22:04.074Z,74.80
2018-01-07T11:24:32.350Z,74.80
2018-01-07T11:26:59.853Z,74.90
2018-01-07T11:29:27.345Z,75.20
2018-01-07T11:31:54.836Z,74.30
2018-01-07T11:34:23.101Z,75.20
2018-01-07T11:36:50.610Z,74.40
2018-01-07T11:39:18.117Z,73.70
2018-01-07T11:41:45.696Z,74.00
2018-01-07T11:44:13.147Z,74.20
2018-01-07T11:46:41.440Z,74.30
2018-01-07T11:49:08.933Z,74.30
2018-01-07T11:51:36.486Z,73.80
2018-01-07T11:54:03.964Z,73.90
2018-01-07T11:56:32.188Z,73.90
2018-01-07T11:58:59.878Z,74.60
2018-01-07T12:01:27.642Z,74.60
2018-01-07T12:03:55.188Z,74.00
2018-01-07T12:06:22.756Z,73.50
2018-01-07T12:08:50.367Z,74.10
2018-01-07T12:11:17.868Z,73.80
2018-01-07T12:13:45.437Z,73.70
2018-01-07T12:16:13.104Z,73.00
2018-01-07T12:18:40.584Z,73.90
2018-01-07T12:21:08.562Z,73.50
2018-01-07T12:23:36.129Z,74.80
2018-01-07T12:26:04.254Z,74.30
2018-01-07T12:28:32.117Z,74.70
2018-01-07T12:30:59.673Z,75.10
2018-01-07T12:33:27.162Z,74.50
2018-01-07T12:35:54.670Z,74.70
2018-01-07T12:38:23.028Z,75.10
2018-01-07T12:40:50.622Z,75.00
2018-01-07T12:43:18.231Z,74.60
2018-01-07T12:45:45.791Z,74.70
2018-01-07T12:48:13.592Z,73.70
2018-01-07T12:50:41.882Z,75.20
2018-01-07T12:53:09.421Z,75.20
2018-01-07T12:55:37.745Z,74.50
2018-01-07T12:58:05.283Z,74.50
2018-01-07T13:00:32.940Z,74.10
2018-01-07T13:03:00.530Z,74.70
2018-01-07T13:05:28.073Z,74.60
2018-01-07T13:07:56.379Z,73.50
2018-01-07T13:10:23.901Z,73.40
2018-01-07T13:12:52.231Z,73.10
2018-01-07T13:15:19.752Z,73.10
2018-01-07T13:17:47.274Z,72.80
2018-01-07T13:20:14.827Z,73.00
2018-01-07T13:22:42.395Z,73.10
2018-01-07T13:25:09.919Z,73.20
2018-01-07T13:27:37.444Z,72.80
2018-01-07T13:30:04.981Z,73.20
2018-01-07T13:32:32.515Z,73.40
2018-01-07T13:35:00.055Z,74.00
2018-01-07T13:37:28.211Z,73.50
2018-01-07T13:39:55.724Z,73.10
2018-01-07T13:42:23.243Z,72.00
2018-01-07T13:44:54.632Z,71.50
2018-01-07T13:47:22.187Z,72.90
2018-01-07T13:49:50.628Z,72.60
2018-01-07T13:52:18.187Z,72.60
2018-01-07T13:54:45.722Z,71.20
2018-01-07T13:57:13.289Z,71.90
2018-01-07T13:59:40.834Z,71.40
2018-01-07T14:02:09.132Z,72.60
2018-01-07T14:04:36.670Z,72.40
2018-01-07T14:07:04.990Z,71.20
2018-01-07T14:09:32.765Z,71.10
2018-01-07T14:12:00.269Z,72.10
2018-01-07T14:14:28.553Z,72.00
2018-01-07T14:16:56.851Z,72.50
2018-01-07T14:21:58.448Z,71.70
2018-01-07T14:24:26.031Z,72.70
2018-01-07T14:26:53.514Z,72.30
2018-01-07T14:29:21.821Z,72.80
2018-01-07T14:31:49.373Z,72.80
2018-01-07T14:34:16.912Z,73.40
2018-01-07T14:36:45.195Z,73.60
2018-01-07T14:39:13.518Z,72.80
2018-01-07T14:41:41.149Z,72.80
2018-01-07T14:44:08.753Z,72.90
2018-01-07T14:46:36.286Z,72.70
2018-01-07T14:49:03.870Z,72.80
2018-01-07T14:51:31.421Z,73.20
2018-01-07T14:54:02.878Z,73.40
2018-01-07T14:56:30.479Z,73.00
2018-01-07T14:58:58.758Z,74.40
2018-01-07T15:01:26.282Z,74.40
2018-01-07T15:06:27.866Z,73.70
2018-01-07T15:08:55.633Z,74.40
2018-01-07T15:11:23.174Z,74.80
2018-01-07T15:13:51.509Z,75.80
2018-01-07T15:16:19.070Z,75.00
2018-01-07T15:18:46.607Z,75.90
2018-01-07T15:21:14.797Z,76.20
2018-01-07T15:23:42.327Z,76.40
2018-01-07T15:26:09.830Z,77.00
2018-01-07T15:28:37.467Z,76.80
2018-01-07T15:31:05.078Z,76.00
2018-01-07T15:33:32.644Z,76.50
2018-01-07T15:36:00.189Z,77.30
2018-01-07T15:38:27.728Z,77.70
2018-01-07T15:40:56.236Z,76.40
2018-01-07T15:43:23.911Z,76.70
2018-01-07T15:45:51.465Z,77.10
2018-01-07T15:48:19.309Z,77.60
2018-01-07T15:50:46.890Z,77.30
2018-01-07T15:53:14.463Z,77.80
2018-01-07T15:55:42.808Z,78.00
2018-01-07T15:58:10.380Z,78.40
2018-01-07T16:00:37.903Z,78.50
2018-01-07T16:03:05.788Z,78.60
2018-01-07T16:05:33.828Z,78.90
2018-01-07T16:08:01.410Z,79.00
2018-01-07T16:10:28.882Z,79.30
2018-01-07T16:12:56.366Z,79.10
2018-01-07T16:15:23.996Z,77.70
2018-01-07T16:17:51.486Z,77.60
2018-01-07T16:20:19.058Z,77.70
2018-01-07T16:22:46.627Z,78.10
2018-01-07T16:25:14.212Z,77.30
2018-01-07T16:27:42.554Z,78.00
2018-01-07T16:30:10.062Z,77.80
2018-01-07T16:32:37.654Z,77.70
2018-01-07T16:35:05.228Z,78.60
2018-01-07T16:37:32.763Z,78.80
2018-01-07T16:40:00.292Z,78.80
2018-01-07T16:42:27.853Z,79.10
2018-01-07T16:44:55.453Z,78.20
2018-01-07T16:47:23.054Z,78.10
2018-01-07T16:49:51.405Z,79.10
2018-01-07T16:52:18.989Z,79.00
2018-01-07T16:54:47.317Z,79.00
2018-01-07T16:57:14.924Z,78.90
2018-01-07T16:59:43.284Z,79.30
2018-01-07T17:02:10.862Z,79.10
2018-01-07T17:04:52.082Z,79.70
2018-01-07T17:10:22.452Z,79.90
2018-01-07T17:12:50.004Z,80.10
2018-01-07T17:15:17.992Z,80.50
2018-01-07T17:17:45.501Z,79.80
2018-01-07T17:20:23.906Z,80.50
2018-01-07T17:22:52.505Z,80.30
2018-01-07T17:25:23.220Z,80.20
2018-01-07T17:27:52.175Z,80.40
2018-01-07T17:30:19.724Z,80.60
2018-01-07T17:32:47.283Z,80.60
2018-01-07T17:35:14.840Z,81.40
2018-01-07T17:37:54.155Z,80.00
2018-01-07T17:40:21.689Z,80.00
2018-01-07T17:42:49.288Z,79.80
2018-01-07T17:45:16.823Z,80.00
2018-01-07T17:47:44.351Z,80.60
2018-01-07T17:50:12.698Z,80.40
2018-01-07T17:52:40.227Z,80.40
2018-01-07T17:55:07.738Z,80.30
2018-01-07T17:57:35.281Z,80.30
2018-01-07T18:00:02.793Z,79.80
2018-01-07T18:02:30.315Z,79.40
2018-01-07T18:04:58.507Z,79.60
2018-01-07T18:07:29.492Z,80.40
2018-01-07T18:09:57.078Z,80.30
2018-01-07T18:12:24.707Z,80.40
2018-01-07T18:14:52.285Z,80.40
2018-01-07T18:17:19.859Z,80.60
2018-01-07T18:19:47.473Z,80.60
2018-01-07T18:22:15.032Z,80.50
2018-01-07T18:24:42.579Z,80.10
2018-01-07T18:27:10.114Z,80.60
2018-01-07T18:29:37.660Z,80.50
2018-01-07T18:32:05.192Z,80.70
2018-01-07T18:34:32.739Z,81.70
2018-01-07T18:37:00.280Z,81.20
2018-01-07T18:39:27.810Z,81.00
2018-01-07T18:41:55.338Z,81.00
2018-01-07T18:44:22.890Z,80.20
2018-01-07T18:46:50.426Z,80.00
2018-01-07T18:49:18.097Z,79.10
2018-01-07T18:51:45.821Z,79.10
2018-01-07T18:54:13.464Z,79.60
2018-01-07T18:56:41.030Z,80.00
2018-01-07T18:59:08.621Z,79.30
2018-01-07T19:01:36.190Z,79.90
2018-01-07T19:04:03.760Z,80.20
2018-01-07T19:06:31.262Z,80.30
2018-01-07T19:08:58.788Z,80.60
2018-01-07T19:11:26.295Z,80.80
2018-01-07T19:13:53.821Z,80.90
2018-01-07T19:16:21.322Z,81.00
2018-01-07T19:18:49.682Z,81.40
2018-01-07T19:21:17.198Z,81.30
2018-01-07T19:23:44.896Z,81.40
2018-01-07T19:26:12.424Z,81.40
2018-01-07T19:28:40.583Z,81.60
2018-01-07T19:31:08.113Z,81.60
2018-01-07T19:33:36.399Z,81.50
2018-01-07T19:36:04.685Z,80.80
2018-01-07T19:38:32.207Z,80.80
2018-01-07T19:40:59.728Z,81.40
2018-01-07T19:43:27.221Z,81.20
2018-01-07T19:45:54.740Z,80.70
2018-01-07T19:48:22.251Z,80.50
2018-01-07T19:50:49.778Z,80.60
2018-01-07T19:53:17.286Z,80.80
2018-01-07T19:55:45.568Z,81.20
2018-01-07T19:58:13.883Z,81.50
2018-01-07T20:00:41.400Z,80.80
2018-01-07T20:03:09.675Z,80.90
2018-01-07T20:05:37.956Z,80.80
2018-01-07T20:08:06.229Z,80.90
2018-01-07T20:10:34.516Z,81.00
2018-01-07T20:13:02.031Z,80.90
2018-01-07T20:15:29.624Z,81.00
2018-01-07T20:17:57.896Z,81.50
2018-01-07T20:20:26.187Z,81.60
2018-01-07T20:22:53.711Z,81.50
2018-01-07T20:25:21.275Z,81.50
2018-01-07T20:27:48.818Z,81.30
2018-01-07T20:30:16.322Z,80.60
2018-01-07T20:32:45.294Z,80.90
2018-01-07T20:35:13.105Z,81.00
2018-01-07T20:37:52.405Z,81.30
2018-01-07T20:40:22.627Z,81.50
2018-01-07T20:42:50.937Z,82.00
2018-01-07T20:45:18.478Z,81.90
2018-01-07T20:47:46.004Z,82.20
2018-01-07T20:50:13.524Z,82.10
2018-01-07T20:52:41.117Z,82.60
2018-01-07T20:55:08.633Z,82.80
2018-01-07T20:57:36.152Z,82.40
2018-01-07T21:00:04.443Z,82.50
2018-01-07T21:02:32.195Z,82.50
2018-01-07T21:05:00.546Z,82.30
2018-01-07T21:07:28.072Z,82.30
2018-01-07T21:09:55.578Z,82.40
2018-01-07T21:12:23.093Z,82.40
2018-01-07T21:14:50.603Z,82.10
2018-01-07T21:17:18.894Z,82.50
2018-01-07T21:19:46.415Z,82.50
2018-01-07T21:22:14.049Z,82.60
2018-01-07T21:24:44.412Z,82.60
2018-01-07T21:27:13.068Z,82.60
2018-01-07T21:29:40.649Z,82.50
2018-01-07T21:32:08.239Z,82.50
2018-01-07T21:34:36.585Z,82.80
2018-01-07T21:37:04.189Z,82.80
2018-01-07T21:39:31.748Z,82.40
2018-01-07T21:41:59.329Z,82.30
2018-01-07T21:44:26.894Z,82.40
2018-01-07T21:46:54.487Z,82.60
2018-01-07T21:49:22.178Z,82.40
2018-01-07T21:51:49.756Z,82.40
2018-01-07T21:54:17.323Z,82.60
2018-01-07T21:56:44.877Z,82.40
2018-01-07T21:59:12.442Z,81.90
2018-01-07T22:01:51.774Z,82.00
2018-01-07T22:04:31.225Z,82.10
2018-01-07T22:07:04.497Z,82.10
2018-01-07T22:09:32.081Z,82.00
2018-01-07T22:11:59.657Z,82.00
2018-01-07T22:14:27.238Z,82.10
2018-01-07T22:16:55.003Z,82.10
2018-01-07T22:19:22.589Z,82.50
2018-01-07T22:21:50.161Z,81.80
2018-01-07T22:24:17.725Z,82.00
2018-01-07T22:26:45.284Z,81.90
2018-01-07T22:29:12.853Z,81.70
2018-01-07T22:31:40.414Z,81.90
2018-01-07T22:34:07.982Z,82.10
2018-01-07T22:36:35.570Z,82.10
2018-01-07T22:39:03.202Z,82.20
2018-01-07T22:41:30.809Z,82.40
2018-01-07T22:43:59.172Z,82.20
2018-01-07T22:46:26.733Z,82.10
2018-01-07T22:48:54.335Z,80.30
2018-01-07T22:51:22.652Z,80.40
2018-01-07T22:53:50.258Z,80.40
2018-01-07T22:56:18.617Z,80.80
2018-01-07T22:58:46.208Z,80.70
2018-01-07T23:01:13.803Z,80.80
2018-01-07T23:03:41.402Z,81.10
2018-01-07T23:06:08.973Z,81.80
2018-01-07T23:08:37.306Z,81.30
2018-01-07T23:11:04.864Z,81.20
2018-01-07T23:13:32.447Z,80.60
2018-01-07T23:16:00.026Z,81.00
2018-01-07T23:18:27.616Z,79.70
2018-01-07T23:20:55.171Z,79.60
2018-01-07T23:23:22.885Z,79.40
2018-01-07T23:25:50.485Z,80.50
2018-01-07T23:28:18.814Z,80.60
2018-01-07T23:30:46.399Z,80.60
2018-01-07T23:33:14.045Z,80.70
2018-01-07T23:35:41.675Z,81.40
2018-01-07T23:38:09.255Z,81.50
2018-01-07T23:40:36.901Z,81.70
2018-01-07T23:43:04.548Z,82.10
2018-01-07T23:45:32.209Z,82.60
2018-01-07T23:48:00.536Z,82.90
2018-01-07T23:50:28.203Z,83.00
2018-01-07T23:52:55.807Z,82.80
2018-01-07T23:55:23.371Z,82.70
2018-01-07T23:57:50.945Z,82.10
